createdAt,value
2019-01-21T00:01:54.853Z,12.43
2019-01-21T00:04:26.465Z,11.97
2019-01-21T00:06:59.177Z,13.07
2019-01-21T00:09:31.312Z,11.50
2019-01-21T00:12:03.755Z,13.60
2019-01-21T00:14:35.773Z,10.47
2019-01-21T00:17:08.274Z,9.57
2019-01-21T00:19:40.413Z,9.77
2019-01-21T00:22:12.732Z,8.53
2019-01-21T00:24:45.694Z,7.30
2019-01-21T00:27:17.716Z,7.17
2019-01-21T00:29:49.731Z,7.53
2019-01-21T00:32:22.373Z,7.37
2019-01-21T00:34:54.185Z,7.90
2019-01-21T00:37:26.498Z,7.27
2019-01-21T00:39:58.149Z,6.60
2019-01-21T00:42:30.021Z,6.23
2019-01-21T00:45:02.633Z,6.27
2019-01-21T00:47:34.953Z,7.57
2019-01-21T00:50:07.994Z,5.73
2019-01-21T00:52:40.306Z,5.63
2019-01-21T00:55:13.201Z,4.43
2019-01-21T00:57:45.735Z,5.53
2019-01-21T01:00:21.497Z,6.80
2019-01-21T01:02:53.995Z,7.07
2019-01-21T01:05:26.376Z,6.90
2019-01-21T01:07:58.677Z,6.00
2019-01-21T01:10:30.915Z,7.87
2019-01-21T01:13:03.353Z,13.00
2019-01-21T01:15:35.033Z,14.50
2019-01-21T01:18:08.253Z,13.17
2019-01-21T01:20:40.873Z,12.07
2019-01-21T01:23:13.736Z,9.17
2019-01-21T01:25:45.552Z,10.33
2019-01-21T01:28:17.258Z,10.70
2019-01-21T01:30:51.114Z,16.20
2019-01-21T01:33:23.716Z,12.60
2019-01-21T01:35:55.794Z,8.73
2019-01-21T01:38:28.094Z,7.10
2019-01-21T01:41:00.313Z,7.93
2019-01-21T01:43:32.733Z,10.20
2019-01-21T01:46:05.577Z,8.13
2019-01-21T01:48:37.435Z,10.23
2019-01-21T01:51:09.075Z,9.30
2019-01-21T01:53:42.314Z,9.17
2019-01-21T01:56:14.412Z,11.03
2019-01-21T01:58:46.322Z,10.37
2019-01-21T02:01:17.777Z,9.43
2019-01-21T02:03:50.043Z,8.90
2019-01-21T02:06:22.496Z,6.40
2019-01-21T02:08:54.654Z,6.87
2019-01-21T02:11:26.664Z,7.00
2019-01-21T02:13:58.541Z,6.87
2019-01-21T02:16:30.670Z,6.53
2019-01-21T02:19:02.615Z,5.57
2019-01-21T02:21:35.306Z,6.93
2019-01-21T02:24:09.781Z,5.83
2019-01-21T02:27:10.013Z,5.10
2019-01-21T02:29:56.234Z,5.67
2019-01-21T02:33:26.973Z,4.20
2019-01-21T02:36:21.694Z,5.43
2019-01-21T02:39:33.081Z,4.47
2019-01-21T02:42:33.465Z,5.97
2019-01-21T02:46:04.180Z,4.97
2019-01-21T02:48:51.295Z,4.87
2019-01-21T02:52:08.433Z,6.17
2019-01-21T02:55:01.936Z,5.43
2019-01-21T02:58:35.492Z,6.00
2019-01-21T03:05:24.621Z,4.77
2019-01-21T03:08:53.408Z,4.10
2019-01-21T03:12:11.959Z,5.73
2019-01-21T03:15:27.688Z,4.70
2019-01-21T03:19:01.760Z,4.20
2019-01-21T03:22:29.259Z,4.10
2019-01-21T03:25:23.163Z,3.97
2019-01-21T03:28:21.042Z,4.83
2019-01-21T03:31:29.029Z,5.43
2019-01-21T03:34:36.175Z,4.80
2019-01-21T03:37:50.666Z,5.07
2019-01-21T03:41:02.063Z,6.00
2019-01-21T03:44:06.369Z,5.13
2019-01-21T03:47:14.241Z,25.80
2019-01-21T03:49:58.200Z,15.00
2019-01-21T03:52:46.341Z,7.63
2019-01-21T03:55:19.931Z,8.47
2019-01-21T03:58:28.079Z,6.10
2019-01-21T04:01:17.068Z,6.97
2019-01-21T04:04:30.332Z,6.43
2019-01-21T04:07:19.495Z,5.87
2019-01-21T04:10:36.405Z,8.63
2019-01-21T04:13:38.821Z,6.73
2019-01-21T04:16:43.361Z,8.80
2019-01-21T04:19:41.081Z,9.47
2019-01-21T04:23:11.732Z,7.60
2019-01-21T04:26:38.640Z,7.00
2019-01-21T04:29:34.023Z,8.40
2019-01-21T04:32:35.338Z,6.23
2019-01-21T04:35:36.884Z,10.67
2019-01-21T04:38:43.761Z,7.43
2019-01-21T04:42:00.765Z,6.27
2019-01-21T04:45:10.019Z,4.93
2019-01-21T04:48:11.760Z,5.00
2019-01-21T04:51:24.680Z,4.77
2019-01-21T04:55:00.047Z,5.57
2019-01-21T04:58:28.101Z,4.93
2019-01-21T05:01:38.487Z,5.43
2019-01-21T05:04:51.346Z,5.40
2019-01-21T05:08:15.619Z,7.57
2019-01-21T05:11:26.448Z,6.23
2019-01-21T05:14:36.439Z,7.17
2019-01-21T05:17:46.637Z,6.97
2019-01-21T05:20:59.183Z,5.57
2019-01-21T05:24:01.219Z,6.03
2019-01-21T05:26:58.059Z,5.40
2019-01-21T05:30:16.881Z,4.90
2019-01-21T05:33:15.022Z,5.07
2019-01-21T05:36:16.881Z,6.40
2019-01-21T05:39:12.264Z,7.13
2019-01-21T05:42:37.362Z,5.73
2019-01-21T05:45:56.100Z,5.13
2019-01-21T05:49:12.540Z,4.90
2019-01-21T05:52:19.901Z,5.33
2019-01-21T05:55:27.242Z,5.10
2019-01-21T05:58:38.962Z,4.67
2019-01-21T06:01:57.463Z,3.53
2019-01-21T06:05:22.799Z,4.63
2019-01-21T06:08:36.080Z,3.43
2019-01-21T06:11:39.299Z,5.43
2019-01-21T06:14:32.683Z,6.53
2019-01-21T06:17:20.720Z,7.07
2019-01-21T06:20:28.080Z,8.20
2019-01-21T06:23:56.400Z,6.60
2019-01-21T06:27:02.640Z,7.83
2019-01-21T06:30:02.801Z,5.53
2019-01-21T06:33:21.841Z,5.80
2019-01-21T06:36:13.203Z,5.93
2019-01-21T06:39:31.261Z,6.13
2019-01-21T06:42:45.899Z,4.97
2019-01-21T06:45:53.500Z,4.37
2019-01-21T06:48:48.681Z,4.87
2019-01-21T06:51:57.681Z,4.93
2019-01-21T06:54:53.633Z,3.37
2019-01-21T06:58:27.780Z,5.23
2019-01-21T07:01:26.800Z,4.77
2019-01-21T07:04:26.823Z,3.60
2019-01-21T07:07:33.680Z,5.00
2019-01-21T07:10:16.653Z,4.90
2019-01-21T07:13:25.263Z,4.97
2019-01-21T07:16:37.720Z,6.00
2019-01-21T07:19:42.320Z,6.30
2019-01-21T07:22:56.240Z,7.83
2019-01-21T07:26:09.003Z,7.33
2019-01-21T07:29:34.000Z,6.90
2019-01-21T07:32:39.100Z,6.53
2019-01-21T07:35:29.317Z,5.30
2019-01-21T07:38:42.503Z,4.93
2019-01-21T07:41:45.053Z,5.27
2019-01-21T07:45:00.403Z,5.60
2019-01-21T07:48:20.480Z,5.90
2019-01-21T07:51:41.062Z,5.90
2019-01-21T07:55:06.673Z,5.13
2019-01-21T07:58:14.180Z,7.17
2019-01-21T08:00:58.480Z,7.17
2019-01-21T08:04:26.203Z,6.40
2019-01-21T08:07:31.760Z,6.30
2019-01-21T08:10:39.601Z,6.23
2019-01-21T08:14:01.382Z,7.67
2019-01-21T08:17:11.603Z,7.87
2019-01-21T08:20:04.745Z,5.93
2019-01-21T08:23:10.329Z,8.90
2019-01-21T08:26:24.766Z,7.70
2019-01-21T08:29:16.480Z,7.70
2019-01-21T08:32:44.179Z,8.47
2019-01-21T08:35:32.741Z,9.50
2019-01-21T08:38:51.375Z,9.27
2019-01-21T08:42:06.600Z,10.00
2019-01-21T08:45:36.579Z,9.07
2019-01-21T08:48:34.262Z,9.93
2019-01-21T08:51:37.519Z,12.10
2019-01-21T08:54:27.159Z,12.07
2019-01-21T08:57:39.639Z,11.67
2019-01-21T09:00:41.866Z,12.00
2019-01-21T09:03:38.806Z,12.30
2019-01-21T09:06:51.644Z,11.57
2019-01-21T09:10:04.079Z,11.40
2019-01-21T09:13:04.340Z,14.30
2019-01-21T09:16:11.878Z,12.53
2019-01-21T09:19:37.067Z,12.67
2019-01-21T09:22:35.679Z,14.00
2019-01-21T09:25:40.719Z,13.93
2019-01-21T09:28:50.800Z,14.53
2019-01-21T09:32:14.960Z,15.73
2019-01-21T09:35:28.728Z,14.73
2019-01-21T09:38:27.780Z,15.23
2019-01-21T09:41:24.842Z,16.10
2019-01-21T09:44:19.119Z,16.67
2019-01-21T09:46:49.781Z,17.73
2019-01-21T09:49:19.922Z,19.13
2019-01-21T09:52:05.152Z,17.93
2019-01-21T09:54:40.080Z,16.20
2019-01-21T09:57:19.047Z,19.17
2019-01-21T09:59:56.340Z,20.47
2019-01-21T10:02:39.779Z,21.00
2019-01-21T10:05:14.413Z,19.73
2019-01-21T10:08:24.240Z,19.77
2019-01-21T10:11:26.081Z,21.07
2019-01-21T10:14:45.359Z,21.53
2019-01-21T10:17:45.621Z,21.73
2019-01-21T10:20:59.440Z,20.37
2019-01-21T10:24:11.440Z,20.87
2019-01-21T10:27:35.280Z,21.80
2019-01-21T10:30:44.399Z,20.93
2019-01-21T10:34:09.541Z,21.07
2019-01-21T10:37:14.725Z,21.33
2019-01-21T10:40:58.166Z,21.93
2019-01-21T10:44:14.259Z,22.97
2019-01-21T10:47:11.601Z,22.37
2019-01-21T10:50:12.101Z,24.83
2019-01-21T10:53:18.080Z,23.27
2019-01-21T10:56:26.977Z,24.70
2019-01-21T10:59:35.605Z,21.53
2019-01-21T11:02:53.136Z,21.87
2019-01-21T11:05:47.122Z,21.33
2019-01-21T11:09:13.864Z,22.43
2019-01-21T11:12:22.962Z,21.87
2019-01-21T11:15:04.261Z,23.23
2019-01-21T11:18:22.900Z,23.63
2019-01-21T11:21:29.521Z,23.57
2019-01-21T11:24:41.084Z,23.60
2019-01-21T11:27:52.607Z,22.57
2019-01-21T11:31:23.783Z,24.83
2019-01-21T11:34:28.727Z,23.97
2019-01-21T11:37:31.321Z,23.23
2019-01-21T11:40:18.800Z,23.20
2019-01-21T11:43:30.839Z,24.27
2019-01-21T11:46:26.599Z,23.53
2019-01-21T11:49:20.537Z,24.40
2019-01-21T11:52:38.901Z,23.93
2019-01-21T11:55:56.340Z,24.03
2019-01-21T11:59:12.499Z,23.43
2019-01-21T12:02:28.635Z,24.63
2019-01-21T12:05:28.921Z,24.20
2019-01-21T12:08:36.721Z,24.40
2019-01-21T12:11:52.580Z,23.83
2019-01-21T12:15:04.240Z,23.40
2019-01-21T12:18:05.360Z,25.67
2019-01-21T12:21:06.800Z,24.10
2019-01-21T12:23:56.541Z,23.30
2019-01-21T12:26:48.841Z,23.70
2019-01-21T12:30:06.397Z,24.47
2019-01-21T12:33:14.107Z,23.90
2019-01-21T12:35:59.120Z,22.77
2019-01-21T12:39:14.560Z,22.97
2019-01-21T12:42:20.741Z,25.27
2019-01-21T12:45:45.501Z,25.50
2019-01-21T12:49:07.141Z,26.30
2019-01-21T12:52:16.894Z,24.63
2019-01-21T12:55:14.999Z,25.87
2019-01-21T12:58:36.740Z,26.33
2019-01-21T13:01:46.821Z,26.10
2019-01-21T13:04:46.319Z,25.57
2019-01-21T13:08:17.220Z,25.50
2019-01-21T13:11:35.080Z,24.30
2019-01-21T13:14:28.884Z,26.43
2019-01-21T13:17:22.841Z,28.30
2019-01-21T13:20:47.401Z,27.30
2019-01-21T13:23:58.774Z,27.10
2019-01-21T13:26:53.192Z,26.27
2019-01-21T13:29:42.281Z,28.10
2019-01-21T13:32:46.980Z,28.90
2019-01-21T13:35:42.002Z,26.17
2019-01-21T13:39:04.873Z,29.77
2019-01-21T13:42:10.483Z,27.73
2019-01-21T13:45:18.239Z,29.53
2019-01-21T13:48:22.746Z,27.30
2019-01-21T13:51:04.800Z,39.47
2019-01-21T13:54:38.801Z,29.47
2019-01-21T13:57:37.842Z,29.13
2019-01-21T14:01:02.803Z,27.57
2019-01-21T14:04:21.681Z,28.40
2019-01-21T14:07:29.119Z,29.63
2019-01-21T14:10:31.062Z,30.13
2019-01-21T14:13:45.021Z,28.60
2019-01-21T14:16:48.051Z,30.00
2019-01-21T14:20:07.941Z,29.23
2019-01-21T14:23:25.162Z,28.07
2019-01-21T14:26:42.659Z,27.73
2019-01-21T14:29:47.579Z,27.40
2019-01-21T14:32:56.421Z,28.43
2019-01-21T14:36:16.833Z,26.07
2019-01-21T14:39:40.702Z,27.83
2019-01-21T14:43:09.681Z,27.77
2019-01-21T14:46:10.252Z,29.13
2019-01-21T14:49:14.000Z,27.63
2019-01-21T14:52:40.764Z,28.73
2019-01-21T14:56:02.173Z,28.97
2019-01-21T14:58:47.030Z,29.07
2019-01-21T15:01:47.742Z,29.17
2019-01-21T15:05:01.110Z,26.03
2019-01-21T15:08:01.444Z,26.30
2019-01-21T15:11:01.365Z,28.17
2019-01-21T15:14:17.071Z,25.40
2019-01-21T15:17:22.492Z,24.93
2019-01-21T15:21:02.642Z,26.20
2019-01-21T15:24:11.793Z,27.10
2019-01-21T15:27:08.479Z,27.27
2019-01-21T15:30:09.226Z,25.20
2019-01-21T15:32:57.318Z,23.33
2019-01-21T15:36:04.813Z,21.90
2019-01-21T15:39:15.514Z,21.77
2019-01-21T15:42:10.177Z,21.10
2019-01-21T15:45:10.660Z,19.10
2019-01-21T15:48:19.558Z,19.40
2019-01-21T15:51:05.126Z,19.17
2019-01-21T15:54:18.140Z,19.27
2019-01-21T15:57:13.301Z,19.40
2019-01-21T16:00:22.662Z,18.67
2019-01-21T16:03:12.879Z,19.47
2019-01-21T16:06:21.420Z,23.00
2019-01-21T16:09:27.340Z,21.27
2019-01-21T16:12:24.562Z,20.17
2019-01-21T16:15:20.519Z,20.43
2019-01-21T16:18:25.754Z,19.63
2019-01-21T16:21:32.406Z,17.93
2019-01-21T16:24:30.980Z,18.90
2019-01-21T16:27:14.920Z,17.27
2019-01-21T16:29:58.661Z,17.70
2019-01-21T16:32:37.007Z,17.93
2019-01-21T16:35:35.285Z,18.90
2019-01-21T16:38:48.060Z,18.00
2019-01-21T16:41:48.119Z,18.20
2019-01-21T16:44:20.441Z,17.10
2019-01-21T16:46:52.746Z,17.17
2019-01-21T16:49:25.101Z,17.87
2019-01-21T16:51:57.029Z,18.20
2019-01-21T16:54:29.380Z,17.37
2019-01-21T16:57:01.704Z,20.57
2019-01-21T16:59:33.681Z,17.90
2019-01-21T17:02:06.261Z,15.47
2019-01-21T17:04:38.341Z,15.53
2019-01-21T17:07:12.655Z,17.60
2019-01-21T17:09:44.463Z,16.00
2019-01-21T17:12:16.341Z,21.20
2019-01-21T17:14:48.747Z,19.37
2019-01-21T17:17:20.882Z,15.97
2019-01-21T17:19:52.945Z,17.67
2019-01-21T17:22:28.403Z,16.97
2019-01-21T17:25:00.984Z,16.23
2019-01-21T17:27:33.321Z,18.53
2019-01-21T17:30:09.967Z,18.87
2019-01-21T17:32:42.181Z,14.73
2019-01-21T17:35:15.463Z,18.00
2019-01-21T17:37:47.241Z,14.73
2019-01-21T17:40:20.181Z,15.87
2019-01-21T17:42:51.991Z,16.30
2019-01-21T17:45:26.180Z,15.97
2019-01-21T17:47:58.041Z,15.47
2019-01-21T17:50:30.191Z,15.53
2019-01-21T17:53:04.118Z,16.33
2019-01-21T17:55:36.541Z,15.67
2019-01-21T17:58:09.200Z,16.57
2019-01-21T18:00:41.160Z,17.80
2019-01-21T18:03:13.121Z,16.50
2019-01-21T18:05:44.882Z,18.13
2019-01-21T18:08:18.160Z,19.23
2019-01-21T18:10:50.002Z,15.07
2019-01-21T18:13:22.242Z,16.17
2019-01-21T18:15:53.914Z,17.43
2019-01-21T18:18:25.920Z,15.90
2019-01-21T18:20:58.120Z,15.83
2019-01-21T18:23:30.183Z,19.17
2019-01-21T18:26:02.500Z,13.53
2019-01-21T18:28:36.647Z,15.97
2019-01-21T18:31:08.741Z,15.87
2019-01-21T18:33:40.800Z,15.63
2019-01-21T18:36:13.102Z,17.07
2019-01-21T18:38:45.121Z,18.13
2019-01-21T18:41:20.475Z,18.83
2019-01-21T18:43:52.961Z,15.23
2019-01-21T18:46:25.080Z,18.77
2019-01-21T18:49:08.975Z,18.20
2019-01-21T18:51:46.504Z,16.77
2019-01-21T18:54:14.455Z,20.27
2019-01-21T18:56:46.495Z,20.03
2019-01-21T18:59:18.315Z,18.60
2019-01-21T19:01:50.271Z,17.47
2019-01-21T19:04:22.382Z,17.07
2019-01-21T19:06:54.221Z,21.37
2019-01-21T19:09:26.029Z,23.57
2019-01-21T19:11:57.748Z,22.70
2019-01-21T19:14:31.171Z,20.93
2019-01-21T19:17:07.140Z,22.77
2019-01-21T19:19:40.086Z,18.97
2019-01-21T19:22:12.621Z,18.90
2019-01-21T19:24:45.663Z,20.27
2019-01-21T19:27:19.440Z,22.93
2019-01-21T19:29:51.886Z,25.13
2019-01-21T19:32:23.543Z,24.47
2019-01-21T19:34:55.600Z,33.13
2019-01-21T19:37:30.194Z,30.80
2019-01-21T19:40:02.420Z,29.57
2019-01-21T19:42:35.220Z,26.50
2019-01-21T19:45:10.940Z,23.37
2019-01-21T19:47:43.186Z,20.87
2019-01-21T19:50:18.061Z,17.60
2019-01-21T19:52:49.945Z,17.83
2019-01-21T19:55:27.601Z,21.07
2019-01-21T19:57:59.925Z,15.70
2019-01-21T20:00:31.762Z,16.50
2019-01-21T20:03:03.622Z,18.37
2019-01-21T20:05:36.260Z,22.13
2019-01-21T20:08:08.044Z,21.07
2019-01-21T20:10:40.261Z,20.40
2019-01-21T20:13:12.879Z,18.90
2019-01-21T20:15:44.841Z,19.03
2019-01-21T20:18:17.201Z,16.23
2019-01-21T20:20:49.220Z,14.73
2019-01-21T20:23:21.521Z,14.67
2019-01-21T20:25:53.540Z,15.73
2019-01-21T20:28:25.741Z,15.40
2019-01-21T20:30:57.842Z,16.47
2019-01-21T20:33:30.028Z,14.53
2019-01-21T20:36:02.822Z,12.73
2019-01-21T20:38:35.458Z,15.47
2019-01-21T20:41:07.221Z,17.43
2019-01-21T20:43:39.169Z,16.83
2019-01-21T20:46:11.780Z,18.93
2019-01-21T20:48:44.070Z,17.83
2019-01-21T20:51:16.139Z,15.20
2019-01-21T20:53:52.686Z,16.43
2019-01-21T20:56:24.892Z,15.63
2019-01-21T20:58:57.020Z,18.33
2019-01-21T21:01:29.544Z,18.63
2019-01-21T21:04:01.841Z,15.43
2019-01-21T21:06:34.159Z,19.57
2019-01-21T21:09:10.190Z,18.00
2019-01-21T21:11:41.920Z,17.30
2019-01-21T21:14:14.020Z,15.83
2019-01-21T21:16:45.680Z,15.80
2019-01-21T21:19:18.341Z,14.43
2019-01-21T21:21:51.014Z,14.57
2019-01-21T21:24:22.981Z,14.13
2019-01-21T21:26:55.201Z,13.30
2019-01-21T21:29:26.934Z,14.07
2019-01-21T21:31:59.301Z,14.67
2019-01-21T21:34:31.500Z,14.13
2019-01-21T21:37:03.645Z,12.77
2019-01-21T21:39:36.281Z,18.03
2019-01-21T21:42:08.903Z,14.20
2019-01-21T21:44:40.880Z,16.20
2019-01-21T21:47:14.561Z,14.53
2019-01-21T21:49:46.380Z,14.93
2019-01-21T21:52:18.743Z,12.77
2019-01-21T21:54:50.783Z,13.07
2019-01-21T21:57:22.561Z,15.40
2019-01-21T21:59:54.462Z,13.03
2019-01-21T22:02:26.300Z,16.83
2019-01-21T22:04:58.259Z,15.53
2019-01-21T22:07:29.786Z,15.00
2019-01-21T22:10:02.180Z,14.50
2019-01-21T22:12:34.823Z,17.80
2019-01-21T22:15:09.535Z,14.30
2019-01-21T22:17:41.786Z,16.37
2019-01-21T22:20:16.160Z,14.97
2019-01-21T22:22:47.960Z,11.93
2019-01-21T22:25:20.879Z,14.50
2019-01-21T22:27:54.045Z,14.83
2019-01-21T22:30:29.360Z,13.87
2019-01-21T22:33:01.741Z,15.73
2019-01-21T22:35:34.343Z,16.67
2019-01-21T22:38:06.660Z,13.47
2019-01-21T22:40:38.290Z,15.60
2019-01-21T22:43:10.220Z,17.87
2019-01-21T22:45:42.320Z,17.80
2019-01-21T22:48:14.561Z,16.23
2019-01-21T22:50:46.520Z,17.10
2019-01-21T22:53:18.264Z,15.27
2019-01-21T22:55:50.664Z,19.53
2019-01-21T22:58:23.020Z,16.23
2019-01-21T23:01:02.598Z,17.63
2019-01-21T23:03:34.640Z,14.30
2019-01-21T23:06:07.120Z,15.43
2019-01-21T23:08:38.980Z,17.47
2019-01-21T23:11:11.079Z,16.63
2019-01-21T23:13:43.301Z,17.80
2019-01-21T23:16:15.641Z,18.07
2019-01-21T23:18:47.860Z,16.73
2019-01-21T23:21:20.242Z,17.83
2019-01-21T23:23:51.830Z,15.77
2019-01-21T23:26:24.360Z,17.63
2019-01-21T23:28:56.261Z,16.67
2019-01-21T23:31:28.448Z,15.10
2019-01-21T23:34:00.749Z,16.33
2019-01-21T23:36:34.164Z,14.07
2019-01-21T23:39:09.015Z,17.63
2019-01-21T23:41:40.729Z,17.57
2019-01-21T23:44:13.383Z,16.43
2019-01-21T23:46:46.019Z,17.00
2019-01-21T23:49:18.500Z,15.10
2019-01-21T23:51:50.880Z,14.03
2019-01-21T23:54:22.801Z,17.27
2019-01-21T23:56:54.660Z,15.37
2019-01-21T23:59:27.600Z,15.30
